sensor_id;sensor_type;location;lat;lon;timestamp;temperature;humidity
5466;DHT22;2755;50.728;7.108;2022-12-29T00:01:17;11.50;99.90
5466;DHT22;2755;50.728;7.108;2022-12-29T00:03:45;11.90;99.90
5466;DHT22;2755;50.728;7.108;2022-12-29T00:06:11;11.40;99.90
5466;DHT22;2755;50.728;7.108;2022-12-29T00:08:36;10.90;99.90
5466;DHT22;2755;50.728;7.108;2022-12-29T00:11:15;11.00;99.90
5466;DHT22;2755;50.728;7.108;2022-12-29T00:13:41;11.70;99.90
5466;DHT22;2755;50.728;7.108;2022-12-29T00:16:26;11.40;99.90
5466;DHT22;2755;50.728;7.108;2022-12-29T00:18:52;11.70;99.90
5466;DHT22;2755;50.728;7.108;2022-12-29T00:21:20;11.10;99.90
5466;DHT22;2755;50.728;7.108;2022-12-29T00:24:04;11.60;99.90
5466;DHT22;2755;50.728;7.108;2022-12-29T00:27:03;11.90;99.90
5466;DHT22;2755;50.728;7.108;2022-12-29T00:29:52;11.90;99.90
5466;DHT22;2755;50.728;7.108;2022-12-29T00:32:36;11.80;99.90
5466;DHT22;2755;50.728;7.108;2022-12-29T00:35:33;11.50;99.90
5466;DHT22;2755;50.728;7.108;2022-12-29T00:38:05;11.60;99.90
5466;DHT22;2755;50.728;7.108;2022-12-29T00:40:50;11.40;99.90
5466;DHT22;2755;50.728;7.108;2022-12-29T00:43:34;11.60;99.90
5466;DHT22;2755;50.728;7.108;2022-12-29T00:46:18;11.80;99.90
5466;DHT22;2755;50.728;7.108;2022-12-29T00:51:28;12.30;99.90
5466;DHT22;2755;50.728;7.108;2022-12-29T00:53:54;11.40;99.90
5466;DHT22;2755;50.728;7.108;2022-12-29T00:56:19;11.30;99.90
5466;DHT22;2755;50.728;7.108;2022-12-29T00:58:45;11.80;99.90
5466;DHT22;2755;50.728;7.108;2022-12-29T01:01:11;12.00;99.90
5466;DHT22;2755;50.728;7.108;2022-12-29T01:03:37;11.70;99.90
5466;DHT22;2755;50.728;7.108;2022-12-29T01:06:05;11.90;99.90
5466;DHT22;2755;50.728;7.108;2022-12-29T01:08:31;12.10;99.90
5466;DHT22;2755;50.728;7.108;2022-12-29T01:11:04;11.90;99.90
5466;DHT22;2755;50.728;7.108;2022-12-29T01:13:30;11.80;99.90
5466;DHT22;2755;50.728;7.108;2022-12-29T01:15:56;11.90;99.90
5466;DHT22;2755;50.728;7.108;2022-12-29T01:18:23;12.00;99.90
5466;DHT22;2755;50.728;7.108;2022-12-29T01:23:15;12.00;99.90
5466;DHT22;2755;50.728;7.108;2022-12-29T01:25:41;12.00;99.90
5466;DHT22;2755;50.728;7.108;2022-12-29T01:28:06;11.70;99.90
5466;DHT22;2755;50.728;7.108;2022-12-29T01:30:34;11.70;99.90
5466;DHT22;2755;50.728;7.108;2022-12-29T01:33:00;12.30;99.90
5466;DHT22;2755;50.728;7.108;2022-12-29T01:35:25;12.10;99.90
5466;DHT22;2755;50.728;7.108;2022-12-29T01:37:51;12.10;99.90
5466;DHT22;2755;50.728;7.108;2022-12-29T01:40:17;11.60;99.90
5466;DHT22;2755;50.728;7.108;2022-12-29T01:42:42;11.60;99.90
5466;DHT22;2755;50.728;7.108;2022-12-29T01:45:13;11.60;99.90
5466;DHT22;2755;50.728;7.108;2022-12-29T01:47:46;11.80;99.90
5466;DHT22;2755;50.728;7.108;2022-12-29T01:52:54;12.10;99.90
5466;DHT22;2755;50.728;7.108;2022-12-29T01:55:22;12.10;99.90
5466;DHT22;2755;50.728;7.108;2022-12-29T01:57:50;12.10;99.90
5466;DHT22;2755;50.728;7.108;2022-12-29T02:00:17;12.70;99.90
5466;DHT22;2755;50.728;7.108;2022-12-29T02:02:46;11.60;99.90
5466;DHT22;2755;50.728;7.108;2022-12-29T02:05:38;12.10;99.90
5466;DHT22;2755;50.728;7.108;2022-12-29T02:08:05;12.10;99.90
5466;DHT22;2755;50.728;7.108;2022-12-29T02:10:32;12.10;99.90
5466;DHT22;2755;50.728;7.108;2022-12-29T02:12:59;12.50;99.90
5466;DHT22;2755;50.728;7.108;2022-12-29T02:27:51;12.40;99.90
5466;DHT22;2755;50.728;7.108;2022-12-29T02:33:21;12.30;99.90
5466;DHT22;2755;50.728;7.108;2022-12-29T02:38:28;12.00;99.90
5466;DHT22;2755;50.728;7.108;2022-12-29T02:41:04;12.10;99.90
5466;DHT22;2755;50.728;7.108;2022-12-29T02:43:58;12.10;99.90
5466;DHT22;2755;50.728;7.108;2022-12-29T02:46:34;12.20;99.90
5466;DHT22;2755;50.728;7.108;2022-12-29T02:49:04;11.80;99.90
5466;DHT22;2755;50.728;7.108;2022-12-29T02:51:42;11.70;99.90
5466;DHT22;2755;50.728;7.108;2022-12-29T02:54:12;12.00;99.90
5466;DHT22;2755;50.728;7.108;2022-12-29T02:56:56;12.10;99.90
5466;DHT22;2755;50.728;7.108;2022-12-29T02:59:22;12.10;99.90
5466;DHT22;2755;50.728;7.108;2022-12-29T03:02:13;12.00;99.90
5466;DHT22;2755;50.728;7.108;2022-12-29T03:18:40;11.80;99.90
5466;DHT22;2755;50.728;7.108;2022-12-29T03:21:17;12.00;99.90
5466;DHT22;2755;50.728;7.108;2022-12-29T03:23:46;12.00;99.90
5466;DHT22;2755;50.728;7.108;2022-12-29T03:26:16;12.10;99.90
5466;DHT22;2755;50.728;7.108;2022-12-29T03:28:47;12.20;99.90
5466;DHT22;2755;50.728;7.108;2022-12-29T03:31:17;12.20;99.90
5466;DHT22;2755;50.728;7.108;2022-12-29T03:33:44;12.00;99.90
5466;DHT22;2755;50.728;7.108;2022-12-29T03:36:17;12.00;99.90
5466;DHT22;2755;50.728;7.108;2022-12-29T03:38:44;12.20;99.90
5466;DHT22;2755;50.728;7.108;2022-12-29T03:41:16;12.00;99.90
5466;DHT22;2755;50.728;7.108;2022-12-29T03:43:42;12.40;99.90
5466;DHT22;2755;50.728;7.108;2022-12-29T03:46:08;11.80;99.90
5466;DHT22;2755;50.728;7.108;2022-12-29T03:48:33;12.30;99.90
5466;DHT22;2755;50.728;7.108;2022-12-29T03:50:59;12.20;99.90
5466;DHT22;2755;50.728;7.108;2022-12-29T03:53:24;12.00;99.90
5466;DHT22;2755;50.728;7.108;2022-12-29T03:55:50;12.10;99.90
5466;DHT22;2755;50.728;7.108;2022-12-29T03:58:16;12.60;99.90
5466;DHT22;2755;50.728;7.108;2022-12-29T04:00:42;12.20;99.90
5466;DHT22;2755;50.728;7.108;2022-12-29T04:03:07;12.30;99.90
5466;DHT22;2755;50.728;7.108;2022-12-29T04:05:33;12.20;99.90
5466;DHT22;2755;50.728;7.108;2022-12-29T04:07:58;12.20;99.90
5466;DHT22;2755;50.728;7.108;2022-12-29T04:10:25;12.40;99.90
5466;DHT22;2755;50.728;7.108;2022-12-29T04:12:51;12.00;99.90
5466;DHT22;2755;50.728;7.108;2022-12-29T04:15:16;11.70;99.90
5466;DHT22;2755;50.728;7.108;2022-12-29T04:17:42;11.60;99.90
5466;DHT22;2755;50.728;7.108;2022-12-29T04:20:08;11.80;99.90
5466;DHT22;2755;50.728;7.108;2022-12-29T04:23:00;12.10;99.90
5466;DHT22;2755;50.728;7.108;2022-12-29T04:25:26;11.30;99.90
5466;DHT22;2755;50.728;7.108;2022-12-29T04:27:52;11.80;99.90
5466;DHT22;2755;50.728;7.108;2022-12-29T04:30:17;11.60;99.90
5466;DHT22;2755;50.728;7.108;2022-12-29T04:32:43;11.60;99.90
5466;DHT22;2755;50.728;7.108;2022-12-29T04:35:08;11.50;99.90
5466;DHT22;2755;50.728;7.108;2022-12-29T04:37:34;11.40;99.90
5466;DHT22;2755;50.728;7.108;2022-12-29T04:39:59;11.40;99.90
5466;DHT22;2755;50.728;7.108;2022-12-29T04:44:51;11.30;99.90
5466;DHT22;2755;50.728;7.108;2022-12-29T04:47:16;11.30;99.90
5466;DHT22;2755;50.728;7.108;2022-12-29T04:49:42;11.50;99.90
5466;DHT22;2755;50.728;7.108;2022-12-29T04:52:07;11.80;99.90
5466;DHT22;2755;50.728;7.108;2022-12-29T04:54:34;11.70;99.90
5466;DHT22;2755;50.728;7.108;2022-12-29T04:56:59;11.90;99.90
5466;DHT22;2755;50.728;7.108;2022-12-29T04:59:25;12.10;99.90
5466;DHT22;2755;50.728;7.108;2022-12-29T05:01:51;11.70;99.90
5466;DHT22;2755;50.728;7.108;2022-12-29T05:04:16;11.50;99.90
5466;DHT22;2755;50.728;7.108;2022-12-29T05:06:42;11.70;99.90
5466;DHT22;2755;50.728;7.108;2022-12-29T05:09:08;11.40;99.90
5466;DHT22;2755;50.728;7.108;2022-12-29T05:11:34;12.10;99.90
5466;DHT22;2755;50.728;7.108;2022-12-29T05:13:59;12.10;99.90
5466;DHT22;2755;50.728;7.108;2022-12-29T05:16:25;11.60;99.90
5466;DHT22;2755;50.728;7.108;2022-12-29T05:18:50;11.70;99.90
5466;DHT22;2755;50.728;7.108;2022-12-29T05:21:16;11.70;99.90
5466;DHT22;2755;50.728;7.108;2022-12-29T05:23:41;11.30;99.90
5466;DHT22;2755;50.728;7.108;2022-12-29T05:26:07;11.60;99.90
5466;DHT22;2755;50.728;7.108;2022-12-29T05:28:33;11.40;99.90
5466;DHT22;2755;50.728;7.108;2022-12-29T05:30:58;11.30;99.90
5466;DHT22;2755;50.728;7.108;2022-12-29T05:33:24;11.30;99.90
5466;DHT22;2755;50.728;7.108;2022-12-29T05:35:49;11.20;99.90
5466;DHT22;2755;50.728;7.108;2022-12-29T05:38:15;11.20;99.90
5466;DHT22;2755;50.728;7.108;2022-12-29T05:40:40;10.90;99.90
5466;DHT22;2755;50.728;7.108;2022-12-29T05:43:06;11.50;99.90
5466;DHT22;2755;50.728;7.108;2022-12-29T05:45:32;11.60;99.90
5466;DHT22;2755;50.728;7.108;2022-12-29T05:47:57;11.00;99.90
5466;DHT22;2755;50.728;7.108;2022-12-29T05:50:23;11.30;99.90
5466;DHT22;2755;50.728;7.108;2022-12-29T05:52:48;11.10;99.90
5466;DHT22;2755;50.728;7.108;2022-12-29T05:55:14;11.00;99.90
5466;DHT22;2755;50.728;7.108;2022-12-29T06:00:06;11.30;99.90
5466;DHT22;2755;50.728;7.108;2022-12-29T06:04:58;10.70;99.90
5466;DHT22;2755;50.728;7.108;2022-12-29T06:07:24;11.10;99.90
5466;DHT22;2755;50.728;7.108;2022-12-29T06:09:49;11.00;99.90
5466;DHT22;2755;50.728;7.108;2022-12-29T06:12:15;11.10;99.90
5466;DHT22;2755;50.728;7.108;2022-12-29T06:14:42;11.10;99.90
5466;DHT22;2755;50.728;7.108;2022-12-29T06:17:08;11.00;99.90
5466;DHT22;2755;50.728;7.108;2022-12-29T06:19:34;11.50;99.90
5466;DHT22;2755;50.728;7.108;2022-12-29T06:21:59;10.70;99.90
5466;DHT22;2755;50.728;7.108;2022-12-29T06:24:25;11.10;99.90
5466;DHT22;2755;50.728;7.108;2022-12-29T06:26:50;10.10;99.90
5466;DHT22;2755;50.728;7.108;2022-12-29T06:29:16;9.80;99.90
5466;DHT22;2755;50.728;7.108;2022-12-29T06:31:46;10.20;99.90
5466;DHT22;2755;50.728;7.108;2022-12-29T06:34:12;10.70;99.90
5466;DHT22;2755;50.728;7.108;2022-12-29T06:36:38;10.10;99.90
5466;DHT22;2755;50.728;7.108;2022-12-29T06:39:04;10.00;99.90
5466;DHT22;2755;50.728;7.108;2022-12-29T06:41:30;10.10;99.90
5466;DHT22;2755;50.728;7.108;2022-12-29T06:43:56;10.20;99.90
5466;DHT22;2755;50.728;7.108;2022-12-29T06:46:21;10.00;99.90
5466;DHT22;2755;50.728;7.108;2022-12-29T06:48:47;10.40;99.90
5466;DHT22;2755;50.728;7.108;2022-12-29T06:51:12;9.90;99.90
5466;DHT22;2755;50.728;7.108;2022-12-29T06:53:38;9.70;99.90
5466;DHT22;2755;50.728;7.108;2022-12-29T06:56:04;9.90;99.90
5466;DHT22;2755;50.728;7.108;2022-12-29T06:58:30;10.30;99.90
5466;DHT22;2755;50.728;7.108;2022-12-29T07:00:55;9.90;99.90
5466;DHT22;2755;50.728;7.108;2022-12-29T07:03:21;9.80;99.90
5466;DHT22;2755;50.728;7.108;2022-12-29T07:05:47;10.10;99.90
5466;DHT22;2755;50.728;7.108;2022-12-29T07:13:05;9.40;99.90
5466;DHT22;2755;50.728;7.108;2022-12-29T07:15:33;9.70;99.90
5466;DHT22;2755;50.728;7.108;2022-12-29T07:20:25;9.40;99.90
5466;DHT22;2755;50.728;7.108;2022-12-29T07:22:50;9.30;99.90
5466;DHT22;2755;50.728;7.108;2022-12-29T07:25:16;9.80;99.90
5466;DHT22;2755;50.728;7.108;2022-12-29T07:27:42;9.20;99.90
5466;DHT22;2755;50.728;7.108;2022-12-29T07:30:08;10.30;99.90
5466;DHT22;2755;50.728;7.108;2022-12-29T07:32:34;9.50;99.90
5466;DHT22;2755;50.728;7.108;2022-12-29T07:35:00;9.30;99.90
5466;DHT22;2755;50.728;7.108;2022-12-29T07:37:25;9.00;99.90
5466;DHT22;2755;50.728;7.108;2022-12-29T07:42:17;9.40;99.90
5466;DHT22;2755;50.728;7.108;2022-12-29T07:44:43;9.50;99.90
5466;DHT22;2755;50.728;7.108;2022-12-29T07:47:08;10.30;99.90
5466;DHT22;2755;50.728;7.108;2022-12-29T07:49:34;9.70;99.90
5466;DHT22;2755;50.728;7.108;2022-12-29T07:51:59;9.70;99.90
5466;DHT22;2755;50.728;7.108;2022-12-29T07:54:25;9.00;99.90
5466;DHT22;2755;50.728;7.108;2022-12-29T07:56:50;9.90;99.90
5466;DHT22;2755;50.728;7.108;2022-12-29T07:59:16;9.70;99.90
5466;DHT22;2755;50.728;7.108;2022-12-29T08:01:42;9.10;99.90
5466;DHT22;2755;50.728;7.108;2022-12-29T08:06:33;9.70;99.90
5466;DHT22;2755;50.728;7.108;2022-12-29T08:13:52;9.20;99.90
5466;DHT22;2755;50.728;7.108;2022-12-29T08:16:18;9.70;99.90
5466;DHT22;2755;50.728;7.108;2022-12-29T08:18:43;9.50;99.90
5466;DHT22;2755;50.728;7.108;2022-12-29T08:21:09;10.10;99.90
5466;DHT22;2755;50.728;7.108;2022-12-29T08:23:35;10.00;99.90
5466;DHT22;2755;50.728;7.108;2022-12-29T08:26:03;9.30;99.90
5466;DHT22;2755;50.728;7.108;2022-12-29T08:28:29;9.40;99.90
5466;DHT22;2755;50.728;7.108;2022-12-29T08:30:58;9.80;99.90
5466;DHT22;2755;50.728;7.108;2022-12-29T08:35:49;9.90;99.90
5466;DHT22;2755;50.728;7.108;2022-12-29T08:38:15;10.10;99.90
5466;DHT22;2755;50.728;7.108;2022-12-29T08:40:40;10.00;99.90
5466;DHT22;2755;50.728;7.108;2022-12-29T08:43:06;10.10;99.90
5466;DHT22;2755;50.728;7.108;2022-12-29T08:45:32;10.50;99.90
5466;DHT22;2755;50.728;7.108;2022-12-29T08:47:57;10.30;99.90
5466;DHT22;2755;50.728;7.108;2022-12-29T08:50:23;10.40;99.90
5466;DHT22;2755;50.728;7.108;2022-12-29T08:52:48;10.20;99.90
5466;DHT22;2755;50.728;7.108;2022-12-29T08:55:14;10.10;99.90
5466;DHT22;2755;50.728;7.108;2022-12-29T08:57:39;10.50;99.90
5466;DHT22;2755;50.728;7.108;2022-12-29T09:00:06;10.50;99.90
5466;DHT22;2755;50.728;7.108;2022-12-29T09:04:58;10.90;99.90
5466;DHT22;2755;50.728;7.108;2022-12-29T09:07:24;10.80;99.90
5466;DHT22;2755;50.728;7.108;2022-12-29T09:09:50;10.60;99.90
5466;DHT22;2755;50.728;7.108;2022-12-29T09:12:16;10.70;99.90
5466;DHT22;2755;50.728;7.108;2022-12-29T09:14:42;11.20;99.90
5466;DHT22;2755;50.728;7.108;2022-12-29T09:17:09;10.80;99.90
5466;DHT22;2755;50.728;7.108;2022-12-29T09:19:53;10.90;99.90
5466;DHT22;2755;50.728;7.108;2022-12-29T09:22:19;10.20;99.90
5466;DHT22;2755;50.728;7.108;2022-12-29T09:24:46;11.10;99.90
5466;DHT22;2755;50.728;7.108;2022-12-29T09:27:11;10.80;99.90
5466;DHT22;2755;50.728;7.108;2022-12-29T09:29:37;11.20;99.90
5466;DHT22;2755;50.728;7.108;2022-12-29T09:32:02;11.00;99.90
5466;DHT22;2755;50.728;7.108;2022-12-29T09:34:28;10.70;99.90
5466;DHT22;2755;50.728;7.108;2022-12-29T09:36:53;10.80;99.90
5466;DHT22;2755;50.728;7.108;2022-12-29T09:39:21;11.30;99.90
5466;DHT22;2755;50.728;7.108;2022-12-29T09:46:52;10.80;99.90
5466;DHT22;2755;50.728;7.108;2022-12-29T09:49:33;11.30;99.90
5466;DHT22;2755;50.728;7.108;2022-12-29T09:52:21;11.60;99.90
5466;DHT22;2755;50.728;7.108;2022-12-29T09:57:49;11.10;99.90
5466;DHT22;2755;50.728;7.108;2022-12-29T10:00:18;11.30;99.90
5466;DHT22;2755;50.728;7.108;2022-12-29T10:02:49;10.60;99.90
5466;DHT22;2755;50.728;7.108;2022-12-29T10:07:55;11.00;99.90
5466;DHT22;2755;50.728;7.108;2022-12-29T10:10:48;11.20;99.90
5466;DHT22;2755;50.728;7.108;2022-12-29T10:16:19;12.80;97.00
5466;DHT22;2755;50.728;7.108;2022-12-29T10:18:54;13.00;95.70
5466;DHT22;2755;50.728;7.108;2022-12-29T10:24:22;12.70;94.60
5466;DHT22;2755;50.728;7.108;2022-12-29T10:26:51;13.10;95.70
5466;DHT22;2755;50.728;7.108;2022-12-29T10:29:20;13.00;96.00
5466;DHT22;2755;50.728;7.108;2022-12-29T10:31:59;13.00;95.20
5466;DHT22;2755;50.728;7.108;2022-12-29T10:34:33;12.70;94.10
5466;DHT22;2755;50.728;7.108;2022-12-29T10:37:28;12.80;94.70
5466;DHT22;2755;50.728;7.108;2022-12-29T10:39:52;12.60;94.70
5466;DHT22;2755;50.728;7.108;2022-12-29T10:42:36;12.40;94.40
5466;DHT22;2755;50.728;7.108;2022-12-29T10:45:03;12.40;96.10
5466;DHT22;2755;50.728;7.108;2022-12-29T10:47:34;12.30;95.90
5466;DHT22;2755;50.728;7.108;2022-12-29T10:50:02;12.40;95.20
5466;DHT22;2755;50.728;7.108;2022-12-29T10:55:01;12.50;96.20
5466;DHT22;2755;50.728;7.108;2022-12-29T10:57:35;12.30;95.20
5466;DHT22;2755;50.728;7.108;2022-12-29T11:00:08;13.30;93.80
5466;DHT22;2755;50.728;7.108;2022-12-29T11:07:47;12.80;92.50
5466;DHT22;2755;50.728;7.108;2022-12-29T11:13:03;12.80;91.80
5466;DHT22;2755;50.728;7.108;2022-12-29T11:15:49;12.70;91.70
5466;DHT22;2755;50.728;7.108;2022-12-29T11:18:40;12.70;91.20
5466;DHT22;2755;50.728;7.108;2022-12-29T11:21:28;12.50;92.20
5466;DHT22;2755;50.728;7.108;2022-12-29T11:23:58;12.80;92.00
5466;DHT22;2755;50.728;7.108;2022-12-29T11:26:25;12.70;91.50
5466;DHT22;2755;50.728;7.108;2022-12-29T11:31:50;12.60;92.20
5466;DHT22;2755;50.728;7.108;2022-12-29T11:34:33;12.80;91.80
5466;DHT22;2755;50.728;7.108;2022-12-29T11:37:11;12.60;91.10
5466;DHT22;2755;50.728;7.108;2022-12-29T11:45:19;12.50;91.70
5466;DHT22;2755;50.728;7.108;2022-12-29T11:47:56;13.20;92.30
5466;DHT22;2755;50.728;7.108;2022-12-29T11:50:32;12.60;91.50
5466;DHT22;2755;50.728;7.108;2022-12-29T11:53:04;12.50;92.40
5466;DHT22;2755;50.728;7.108;2022-12-29T11:55:30;11.90;91.10
5466;DHT22;2755;50.728;7.108;2022-12-29T11:57:58;12.20;92.70
5466;DHT22;2755;50.728;7.108;2022-12-29T12:00:27;12.70;92.80
5466;DHT22;2755;50.728;7.108;2022-12-29T12:03:03;12.80;92.00
5466;DHT22;2755;50.728;7.108;2022-12-29T12:05:48;12.70;90.80
5466;DHT22;2755;50.728;7.108;2022-12-29T12:11:11;12.60;91.20
5466;DHT22;2755;50.728;7.108;2022-12-29T12:16:27;11.70;91.90
5466;DHT22;2755;50.728;7.108;2022-12-29T12:18:57;12.00;92.40
5466;DHT22;2755;50.728;7.108;2022-12-29T12:21:29;11.80;91.70
5466;DHT22;2755;50.728;7.108;2022-12-29T12:30:02;12.40;91.20
5466;DHT22;2755;50.728;7.108;2022-12-29T12:41:08;12.40;91.10
5466;DHT22;2755;50.728;7.108;2022-12-29T12:49:15;12.00;93.00
5466;DHT22;2755;50.728;7.108;2022-12-29T13:00:08;12.60;91.70
5466;DHT22;2755;50.728;7.108;2022-12-29T13:03:04;12.10;91.00
5466;DHT22;2755;50.728;7.108;2022-12-29T13:14:22;12.00;91.20
5466;DHT22;2755;50.728;7.108;2022-12-29T13:20:33;12.00;92.10
5466;DHT22;2755;50.728;7.108;2022-12-29T13:22:34;12.00;92.20
5466;DHT22;2755;50.728;7.108;2022-12-29T13:25:25;12.70;92.50
5466;DHT22;2755;50.728;7.108;2022-12-29T13:31:10;12.00;92.10
5466;DHT22;2755;50.728;7.108;2022-12-29T13:36:13;12.00;91.80
5466;DHT22;2755;50.728;7.108;2022-12-29T13:44:31;11.80;91.70
5466;DHT22;2755;50.728;7.108;2022-12-29T13:46:59;12.50;92.20
5466;DHT22;2755;50.728;7.108;2022-12-29T13:49:26;12.00;91.80
5466;DHT22;2755;50.728;7.108;2022-12-29T13:51:55;11.50;92.70
5466;DHT22;2755;50.728;7.108;2022-12-29T13:57:28;12.10;92.90
5466;DHT22;2755;50.728;7.108;2022-12-29T14:00:21;11.90;93.80
5466;DHT22;2755;50.728;7.108;2022-12-29T14:07:49;11.80;92.50
5466;DHT22;2755;50.728;7.108;2022-12-29T14:10:37;11.80;92.30
5466;DHT22;2755;50.728;7.108;2022-12-29T14:13:23;11.90;92.90
5466;DHT22;2755;50.728;7.108;2022-12-29T14:15:53;11.50;92.40
5466;DHT22;2755;50.728;7.108;2022-12-29T14:18:27;12.40;92.60
5466;DHT22;2755;50.728;7.108;2022-12-29T14:21:09;12.20;92.60
5466;DHT22;2755;50.728;7.108;2022-12-29T14:23:41;11.60;92.30
5466;DHT22;2755;50.728;7.108;2022-12-29T14:28:47;11.70;92.70
5466;DHT22;2755;50.728;7.108;2022-12-29T14:36:42;11.70;94.40
5466;DHT22;2755;50.728;7.108;2022-12-29T14:42:14;11.70;91.70
5466;DHT22;2755;50.728;7.108;2022-12-29T14:47:32;11.20;92.80
5466;DHT22;2755;50.728;7.108;2022-12-29T14:57:48;11.10;94.20
5466;DHT22;2755;50.728;7.108;2022-12-29T15:00:19;10.90;94.30
5466;DHT22;2755;50.728;7.108;2022-12-29T15:03:06;10.90;93.80
5466;DHT22;2755;50.728;7.108;2022-12-29T15:05:41;10.80;95.40
5466;DHT22;2755;50.728;7.108;2022-12-29T15:08:08;10.60;94.30
5466;DHT22;2755;50.728;7.108;2022-12-29T15:10:45;10.50;96.40
5466;DHT22;2755;50.728;7.108;2022-12-29T15:13:31;10.80;97.50
5466;DHT22;2755;50.728;7.108;2022-12-29T15:15:57;11.30;99.90
5466;DHT22;2755;50.728;7.108;2022-12-29T15:18:26;10.30;99.90
5466;DHT22;2755;50.728;7.108;2022-12-29T15:20:57;9.90;99.90
5466;DHT22;2755;50.728;7.108;2022-12-29T15:23:24;9.60;99.90
5466;DHT22;2755;50.728;7.108;2022-12-29T15:25:57;9.20;99.90
5466;DHT22;2755;50.728;7.108;2022-12-29T15:28:25;9.10;99.90
5466;DHT22;2755;50.728;7.108;2022-12-29T15:31:12;8.70;99.90
5466;DHT22;2755;50.728;7.108;2022-12-29T15:33:44;8.50;99.90
5466;DHT22;2755;50.728;7.108;2022-12-29T15:36:13;8.00;99.90
5466;DHT22;2755;50.728;7.108;2022-12-29T15:38:39;7.50;99.90
5466;DHT22;2755;50.728;7.108;2022-12-29T15:47:06;7.50;99.90
5466;DHT22;2755;50.728;7.108;2022-12-29T15:49:32;7.60;99.90
5466;DHT22;2755;50.728;7.108;2022-12-29T15:51:58;7.40;99.90
5466;DHT22;2755;50.728;7.108;2022-12-29T15:54:24;6.90;99.90
5466;DHT22;2755;50.728;7.108;2022-12-29T15:56:53;7.10;99.90
5466;DHT22;2755;50.728;7.108;2022-12-29T15:59:31;7.10;99.90
5466;DHT22;2755;50.728;7.108;2022-12-29T16:01:59;7.20;99.90
5466;DHT22;2755;50.728;7.108;2022-12-29T16:04:30;6.90;99.90
5466;DHT22;2755;50.728;7.108;2022-12-29T16:07:03;6.90;99.90
5466;DHT22;2755;50.728;7.108;2022-12-29T16:09:34;7.50;99.90
5466;DHT22;2755;50.728;7.108;2022-12-29T16:12:05;7.10;99.90
5466;DHT22;2755;50.728;7.108;2022-12-29T16:14:40;6.80;99.90
5466;DHT22;2755;50.728;7.108;2022-12-29T16:17:09;6.30;99.90
5466;DHT22;2755;50.728;7.108;2022-12-29T16:19:38;7.30;99.90
5466;DHT22;2755;50.728;7.108;2022-12-29T16:22:10;7.00;99.90
5466;DHT22;2755;50.728;7.108;2022-12-29T16:24:39;6.90;99.90
5466;DHT22;2755;50.728;7.108;2022-12-29T16:29:30;6.80;99.90
5466;DHT22;2755;50.728;7.108;2022-12-29T16:34:32;6.60;99.90
5466;DHT22;2755;50.728;7.108;2022-12-29T16:36:59;7.20;99.90
5466;DHT22;2755;50.728;7.108;2022-12-29T16:39:38;7.30;99.90
5466;DHT22;2755;50.728;7.108;2022-12-29T16:42:43;6.80;99.90
5466;DHT22;2755;50.728;7.108;2022-12-29T16:50:41;6.70;99.90
5466;DHT22;2755;50.728;7.108;2022-12-29T16:53:25;7.50;99.90
5466;DHT22;2755;50.728;7.108;2022-12-29T16:55:52;6.60;99.90
5466;DHT22;2755;50.728;7.108;2022-12-29T17:00:47;6.90;99.90
5466;DHT22;2755;50.728;7.108;2022-12-29T17:03:13;6.90;99.90
5466;DHT22;2755;50.728;7.108;2022-12-29T17:05:39;6.80;99.90
5466;DHT22;2755;50.728;7.108;2022-12-29T17:08:25;6.50;99.90
5466;DHT22;2755;50.728;7.108;2022-12-29T17:10:52;7.20;99.90
5466;DHT22;2755;50.728;7.108;2022-12-29T17:13:38;6.80;99.90
5466;DHT22;2755;50.728;7.108;2022-12-29T17:16:05;6.40;99.90
5466;DHT22;2755;50.728;7.108;2022-12-29T17:18:33;7.20;99.90
5466;DHT22;2755;50.728;7.108;2022-12-29T17:20:59;7.00;99.90
5466;DHT22;2755;50.728;7.108;2022-12-29T17:23:24;6.80;99.90
5466;DHT22;2755;50.728;7.108;2022-12-29T17:25:51;6.60;99.90
5466;DHT22;2755;50.728;7.108;2022-12-29T17:28:23;7.10;99.90
5466;DHT22;2755;50.728;7.108;2022-12-29T17:30:49;6.70;99.90
5466;DHT22;2755;50.728;7.108;2022-12-29T17:33:18;7.00;99.90
5466;DHT22;2755;50.728;7.108;2022-12-29T17:35:44;7.10;99.90
5466;DHT22;2755;50.728;7.108;2022-12-29T17:38:18;7.20;99.90
5466;DHT22;2755;50.728;7.108;2022-12-29T17:40:44;7.20;99.90
5466;DHT22;2755;50.728;7.108;2022-12-29T17:43:13;7.20;99.90
5466;DHT22;2755;50.728;7.108;2022-12-29T17:45:40;7.20;99.90
5466;DHT22;2755;50.728;7.108;2022-12-29T17:48:14;7.20;99.90
5466;DHT22;2755;50.728;7.108;2022-12-29T17:53:12;7.40;99.90
5466;DHT22;2755;50.728;7.108;2022-12-29T17:55:38;7.40;99.90
5466;DHT22;2755;50.728;7.108;2022-12-29T17:58:23;6.90;99.90
5466;DHT22;2755;50.728;7.108;2022-12-29T18:03:18;7.40;99.90
5466;DHT22;2755;50.728;7.108;2022-12-29T18:10:38;7.60;99.90
5466;DHT22;2755;50.728;7.108;2022-12-29T18:13:04;7.60;99.90
5466;DHT22;2755;50.728;7.108;2022-12-29T18:15:33;7.00;99.90
5466;DHT22;2755;50.728;7.108;2022-12-29T18:20:27;7.60;99.90
5466;DHT22;2755;50.728;7.108;2022-12-29T18:22:53;7.00;99.90
5466;DHT22;2755;50.728;7.108;2022-12-29T18:25:43;7.50;99.90
5466;DHT22;2755;50.728;7.108;2022-12-29T18:28:10;7.30;99.90
5466;DHT22;2755;50.728;7.108;2022-12-29T18:30:36;7.10;99.90
5466;DHT22;2755;50.728;7.108;2022-12-29T18:33:02;7.70;99.90
5466;DHT22;2755;50.728;7.108;2022-12-29T18:40:23;7.50;99.90
5466;DHT22;2755;50.728;7.108;2022-12-29T18:42:48;7.80;99.90
5466;DHT22;2755;50.728;7.108;2022-12-29T18:45:19;7.80;99.90
5466;DHT22;2755;50.728;7.108;2022-12-29T18:47:45;8.30;99.90
5466;DHT22;2755;50.728;7.108;2022-12-29T18:50:11;8.40;99.90
5466;DHT22;2755;50.728;7.108;2022-12-29T18:52:37;7.90;99.90
5466;DHT22;2755;50.728;7.108;2022-12-29T18:55:03;8.00;99.90
5466;DHT22;2755;50.728;7.108;2022-12-29T18:57:29;7.90;99.90
5466;DHT22;2755;50.728;7.108;2022-12-29T18:59:56;8.00;99.90
5466;DHT22;2755;50.728;7.108;2022-12-29T19:02:21;8.00;99.90
5466;DHT22;2755;50.728;7.108;2022-12-29T19:04:47;8.00;99.90
5466;DHT22;2755;50.728;7.108;2022-12-29T19:07:13;7.90;99.90
5466;DHT22;2755;50.728;7.108;2022-12-29T19:09:38;8.00;99.90
5466;DHT22;2755;50.728;7.108;2022-12-29T19:12:04;8.00;99.90
5466;DHT22;2755;50.728;7.108;2022-12-29T19:16:55;8.20;99.90
5466;DHT22;2755;50.728;7.108;2022-12-29T19:19:21;8.10;99.90
5466;DHT22;2755;50.728;7.108;2022-12-29T19:21:46;8.50;99.90
5466;DHT22;2755;50.728;7.108;2022-12-29T19:24:12;8.30;99.90
5466;DHT22;2755;50.728;7.108;2022-12-29T19:26:39;8.80;99.90
5466;DHT22;2755;50.728;7.108;2022-12-29T19:29:07;8.40;99.90
5466;DHT22;2755;50.728;7.108;2022-12-29T19:31:33;9.00;99.90
5466;DHT22;2755;50.728;7.108;2022-12-29T19:34:00;8.40;99.90
5466;DHT22;2755;50.728;7.108;2022-12-29T19:38:53;8.50;99.90
5466;DHT22;2755;50.728;7.108;2022-12-29T19:41:19;8.10;99.90
5466;DHT22;2755;50.728;7.108;2022-12-29T19:46:14;8.30;99.90
5466;DHT22;2755;50.728;7.108;2022-12-29T19:48:40;8.40;99.90
5466;DHT22;2755;50.728;7.108;2022-12-29T19:51:08;7.90;99.90
5466;DHT22;2755;50.728;7.108;2022-12-29T19:53:35;7.70;99.90
5466;DHT22;2755;50.728;7.108;2022-12-29T19:56:02;8.00;99.90
5466;DHT22;2755;50.728;7.108;2022-12-29T19:58:29;7.70;99.90
5466;DHT22;2755;50.728;7.108;2022-12-29T20:01:01;7.80;99.90
5466;DHT22;2755;50.728;7.108;2022-12-29T20:03:27;7.80;99.90
5466;DHT22;2755;50.728;7.108;2022-12-29T20:05:52;7.20;99.90
5466;DHT22;2755;50.728;7.108;2022-12-29T20:08:18;7.80;99.90
5466;DHT22;2755;50.728;7.108;2022-12-29T20:10:43;7.70;99.90
5466;DHT22;2755;50.728;7.108;2022-12-29T20:13:09;8.10;99.90
5466;DHT22;2755;50.728;7.108;2022-12-29T20:15:35;7.20;99.90
5466;DHT22;2755;50.728;7.108;2022-12-29T20:20:26;8.10;99.90